Time;durP1;ratioP1;P1;durP2;ratioP2;P2;SDS_P1;SDS_P2;PMS_P1;PMS_P2;Temp;Humidity;BMP_temperature;BMP_pressure;BME280_temperature;BME280_humidity;BME280_pressure;Samples;Min_cycle;Max_cycle;Signal;HPM_P1;HPM_P2
2022/01/16 00:06:25;;;;;;;1518.05;730.10;;;2.30;99.90;;;;;;5071214;28;20099;-82
2022/01/16 00:08:50;;;;;;;1519.13;721.13;;;2.30;99.90;;;;;;5069817;28;20440;-82
2022/01/16 00:11:16;;;;;;;1515.07;727.03;;;2.20;99.90;;;;;;5071345;28;20036;-81
2022/01/16 00:13:41;;;;;;;1520.15;730.72;;;2.20;99.90;;;;;;5066354;28;20048;-82
2022/01/16 00:16:12;;;;;;;1513.82;723.95;;;2.20;99.90;;;;;;5065286;28;20048;-81
2022/01/16 00:18:49;;;;;;;1512.07;725.83;;;2.10;99.90;;;;;;5070814;28;20182;-81
2022/01/16 00:21:16;;;;;;;1504.85;720.80;;;2.00;99.90;;;;;;5071476;28;20059;-82
2022/01/16 00:23:42;;;;;;;1498.78;708.00;;;2.10;99.90;;;;;;5069979;28;20075;-82
2022/01/16 00:26:07;;;;;;;1521.43;726.50;;;1.90;99.90;;;;;;5087935;28;20071;-82
2022/01/16 00:28:36;;;;;;;1523.53;737.67;;;2.00;99.90;;;;;;5070289;28;20550;-82
2022/01/16 00:31:02;;;;;;;1512.07;723.08;;;1.00;99.90;;;;;;5071370;28;20458;-82
2022/01/16 00:33:27;;;;;;;1522.97;727.72;;;2.00;99.90;;;;;;5070383;28;20122;-82
2022/01/16 00:35:56;;;;;;;1521.55;730.40;;;1.70;99.90;;;;;;5087938;28;20369;-81
2022/01/16 00:38:22;;;;;;;1502.15;720.47;;;1.90;99.90;;;;;;5069510;28;20047;-82
2022/01/16 00:40:47;;;;;;;1502.15;726.00;;;1.80;99.90;;;;;;5070152;28;20055;-82
2022/01/16 00:43:14;;;;;;;1496.55;711.47;;;1.80;99.90;;;;;;5069972;28;20119;-81
2022/01/16 00:45:40;;;;;;;1487.63;701.60;;;1.80;99.90;;;;;;5069911;28;20058;-81
2022/01/16 00:48:07;;;;;;;1503.70;715.53;;;1.80;99.90;;;;;;5070606;28;20043;-81
2022/01/16 00:50:34;;;;;;;1486.85;702.13;;;1.80;99.90;;;;;;5069423;28;20491;-81
2022/01/16 00:53:00;;;;;;;1504.90;717.10;;;1.80;99.90;;;;;;5070649;28;20047;-82
2022/01/16 00:55:26;;;;;;;1503.93;720.28;;;1.80;99.90;;;;;;5070038;28;20039;-82
2022/01/16 00:57:55;;;;;;;1502.63;719.08;;;1.80;99.90;;;;;;5070018;28;20079;-81
2022/01/16 01:00:22;;;;;;;1501.85;720.80;;;1.80;99.90;;;;;;5069096;28;20090;-81
2022/01/16 01:02:47;;;;;;;1505.85;713.85;;;1.80;99.90;;;;;;5066564;28;20157;-81
2022/01/16 01:05:13;;;;;;;1506.30;719.83;;;1.80;99.90;;;;;;5068682;28;20043;-82
2022/01/16 01:07:39;;;;;;;1504.20;716.80;;;1.80;99.90;;;;;;5070050;28;20146;-82
2022/01/16 01:10:07;;;;;;;1516.43;732.20;;;1.80;99.90;;;;;;5069766;28;20105;-81
2022/01/16 01:12:51;;;;;;;1502.65;723.55;;;1.70;99.90;;;;;;5068572;28;20100;-82
2022/01/16 01:15:30;;;;;;;1502.90;728.58;;;1.70;99.90;;;;;;5067909;28;20040;-82
2022/01/16 01:17:56;;;;;;;1522.43;734.90;;;1.70;99.90;;;;;;5067383;28;20052;-82
2022/01/16 01:20:24;;;;;;;1501.85;722.63;;;1.70;99.90;;;;;;5069472;28;20052;-82
2022/01/16 01:22:52;;;;;;;1509.07;727.05;;;1.70;99.90;;;;;;5068738;28;20170;-81
2022/01/16 01:25:19;;;;;;;1497.25;721.50;;;1.60;99.90;;;;;;5061644;28;20063;-81
2022/01/16 01:27:46;;;;;;;1492.40;715.90;;;1.60;99.90;;;;;;5063277;28;20051;-83
2022/01/16 01:30:16;;;;;;;1493.30;716.28;;;1.60;99.90;;;;;;5068369;28;20046;-81
2022/01/16 01:32:46;;;;;;;1500.53;722.97;;;1.60;99.90;;;;;;5055744;28;20075;-82
2022/01/16 01:35:14;;;;;;;1505.10;723.30;;;1.60;99.90;;;;;;5065734;28;20483;-82
2022/01/16 01:37:40;;;;;;;1498.50;714.78;;;1.60;99.90;;;;;;5087703;28;20674;-82
2022/01/16 01:40:10;;;;;;;1486.55;707.15;;;1.60;99.90;;;;;;5086881;28;20508;-82
2022/01/16 01:42:44;;;;;;;1487.15;704.08;;;1.60;99.90;;;;;;5064157;28;20044;-83
2022/01/16 01:51:04;;;;;;;1499.72;721.88;;;1.60;99.90;;;;;;4995165;28;20107;-82
2022/01/16 01:53:29;;;;;;;1497.28;723.25;;;1.60;99.90;;;;;;5061195;28;20036;-81
2022/01/16 01:55:55;;;;;;;1488.20;708.47;;;1.60;99.90;;;;;;5068438;28;20051;-82
2022/01/16 01:58:21;;;;;;;1504.88;724.80;;;1.60;99.90;;;;;;5068809;28;20040;-81
2022/01/16 02:00:46;;;;;;;1517.25;728.30;;;1.60;99.90;;;;;;5063415;28;20040;-81
2022/01/16 02:05:39;;;;;;;1500.30;717.40;;;1.60;99.90;;;;;;5068320;28;20076;-81
2022/01/16 02:08:06;;;;;;;1497.72;724.10;;;1.60;99.90;;;;;;5064320;28;20051;-82
2022/01/16 02:10:32;;;;;;;1501.28;719.05;;;2.10;99.90;;;;;;5066442;28;20048;-82
2022/01/16 02:13:03;;;;;;;1498.03;714.00;;;1.60;99.90;;;;;;5068064;28;20048;-84
2022/01/16 02:29:40;;;;;;;1510.05;722.50;;;1.50;99.90;;;;;;5054187;28;20053;-84
2022/01/16 02:34:36;;;;;;;1493.90;713.00;;;1.50;99.90;;;;;;5086924;28;20472;-85
2022/01/16 02:37:07;;;;;;;1479.20;702.45;;;1.50;99.90;;;;;;5068339;28;20089;-83
2022/01/16 02:39:35;;;;;;;1535.32;723.85;;;1.50;99.90;;;;;;5068505;28;20040;-87
2022/01/16 02:42:06;;;;;;;1501.35;704.85;;;1.50;99.90;;;;;;5068713;28;20059;-83
2022/01/16 02:44:41;;;;;;;1475.28;693.80;;;1.50;99.90;;;;;;5068097;28;20036;-84
2022/01/16 02:47:11;;;;;;;1492.38;709.53;;;1.50;99.90;;;;;;5068026;28;20534;-84
2022/01/16 02:49:40;;;;;;;1498.10;712.38;;;1.50;99.90;;;;;;5065950;28;20032;-85
2022/01/16 02:52:09;;;;;;;1502.10;713.33;;;1.50;99.90;;;;;;5070518;28;20097;-85
2022/01/16 02:54:38;;;;;;;1511.65;721.65;;;1.50;99.90;;;;;;5072108;28;20130;-83
2022/01/16 02:57:10;;;;;;;1491.88;718.78;;;1.50;99.90;;;;;;5071471;28;20051;-84
2022/01/16 02:59:38;;;;;;;1511.43;717.85;;;1.50;99.90;;;;;;5072631;28;20480;-81
2022/01/16 03:02:07;;;;;;;1483.95;711.75;;;1.40;99.90;;;;;;5068056;28;20072;-81
2022/01/16 03:04:36;;;;;;;1480.43;713.55;;;1.50;99.90;;;;;;5071226;28;20151;-82
2022/01/16 03:07:04;;;;;;;1504.22;715.05;;;1.40;99.90;;;;;;5072025;28;20163;-82
2022/01/16 03:09:45;;;;;;;1505.90;717.03;;;1.40;99.90;;;;;;5072317;28;20057;-83
2022/01/16 03:12:11;;;;;;;1493.55;720.40;;;1.40;99.90;;;;;;5071662;28;20044;-81
2022/01/16 03:14:37;;;;;;;1501.18;713.85;;;1.40;99.90;;;;;;5071852;28;20599;-85
2022/01/16 03:17:02;;;;;;;1496.65;711.00;;;1.40;99.90;;;;;;5071479;28;20047;-84
2022/01/16 03:22:12;;;;;;;1466.70;701.45;;;1.40;99.90;;;;;;5067369;28;20048;-82
2022/01/16 03:24:40;;;;;;;1493.13;716.10;;;1.40;99.90;;;;;;5069011;28;20051;-81
2022/01/16 03:27:18;;;;;;;1491.28;713.92;;;1.40;99.90;;;;;;5068993;28;20044;-83
2022/01/16 03:29:52;;;;;;;1500.07;723.45;;;1.50;99.90;;;;;;5068133;28;20091;-81
2022/01/16 03:32:20;;;;;;;1503.05;711.85;;;1.50;99.90;;;;;;5056522;28;20395;-84
2022/01/16 03:34:46;;;;;;;1498.72;719.78;;;1.50;99.90;;;;;;5071159;28;20071;-83
2022/01/16 03:37:12;;;;;;;1486.18;714.33;;;1.50;99.90;;;;;;5070967;28;20094;-82
2022/01/16 03:39:39;;;;;;;1502.05;724.45;;;1.50;99.90;;;;;;5070394;28;20048;-82
2022/01/16 03:42:06;;;;;;;1490.28;718.45;;;1.50;99.90;;;;;;5071868;28;20104;-80
2022/01/16 03:44:35;;;;;;;1490.63;707.47;;;2.00;99.90;;;;;;5070222;28;20096;-80
2022/01/16 03:47:01;;;;;;;1480.90;709.47;;;1.10;99.90;;;;;;5071132;28;20544;-82
2022/01/16 03:49:29;;;;;;;1491.85;704.15;;;1.60;99.90;;;;;;5071006;28;20423;-82
2022/01/16 03:51:56;;;;;;;1495.07;727.47;;;1.60;99.90;;;;;;5071032;28;20044;-82
2022/01/16 03:54:24;;;;;;;1496.30;716.00;;;1.60;99.90;;;;;;5067252;28;20040;-87
2022/01/16 03:56:51;;;;;;;1508.50;718.13;;;1.40;99.90;;;;;;5070192;28;20085;-83
2022/01/16 03:59:17;;;;;;;1514.63;714.70;;;1.60;99.90;;;;;;5068800;28;20040;-80
2022/01/16 04:01:43;;;;;;;1518.38;723.30;;;1.60;99.90;;;;;;5071451;28;20543;-82
2022/01/16 04:04:10;;;;;;;1483.45;714.40;;;1.70;99.90;;;;;;5070078;28;20131;-82
2022/01/16 04:06:36;;;;;;;1482.15;705.65;;;1.60;99.90;;;;;;5070647;28;20048;-82
2022/01/16 04:09:03;;;;;;;1495.88;720.67;;;1.70;99.90;;;;;;5071270;28;20040;-81
2022/01/16 04:11:29;;;;;;;1506.20;716.10;;;1.70;99.90;;;;;;5070869;28;20069;-82
2022/01/16 04:14:05;;;;;;;1487.32;709.72;;;1.70;99.90;;;;;;5068424;28;20094;-82
2022/01/16 04:16:31;;;;;;;1512.85;727.42;;;1.70;99.90;;;;;;5055683;28;20044;-83
2022/01/16 04:18:57;;;;;;;1505.88;715.95;;;1.70;99.90;;;;;;5070022;28;20127;-85
2022/01/16 04:21:25;;;;;;;1486.75;709.47;;;1.70;99.90;;;;;;5070761;28;20040;-83
2022/01/16 04:23:52;;;;;;;1487.18;712.95;;;1.80;99.90;;;;;;5070396;28;20043;-86
2022/01/16 04:26:18;;;;;;;1496.80;722.55;;;1.80;99.90;;;;;;5070272;28;20118;-83
2022/01/16 04:28:48;;;;;;;1526.95;714.58;;;1.80;99.90;;;;;;5068802;28;20044;-82
2022/01/16 04:31:16;;;;;;;1519.13;728.65;;;1.80;99.90;;;;;;5068992;28;20400;-82
2022/01/16 04:33:43;;;;;;;1510.88;716.67;;;1.80;99.90;;;;;;5069037;28;20360;-82
2022/01/16 04:36:09;;;;;;;1484.30;706.53;;;1.90;99.90;;;;;;5068986;28;20095;-82
2022/01/16 04:38:38;;;;;;;1493.68;711.33;;;1.80;99.90;;;;;;5069404;28;20374;-82
2022/01/16 04:43:48;;;;;;;1495.45;710.65;;;1.90;99.90;;;;;;5065142;28;20174;-82
2022/01/16 04:46:19;;;;;;;1520.35;729.67;;;1.90;99.90;;;;;;5069898;28;20524;-82
2022/01/16 04:48:46;;;;;;;1505.95;714.58;;;2.00;99.90;;;;;;5069186;28;20062;-83
2022/01/16 04:51:12;;;;;;;1525.70;715.08;;;1.90;99.90;;;;;;5069886;28;20055;-83
2022/01/16 04:53:38;;;;;;;1513.80;721.22;;;2.00;99.90;;;;;;5068595;28;20044;-82
2022/01/16 04:56:05;;;;;;;1545.97;731.40;;;2.00;99.90;;;;;;5069882;28;20557;-83
2022/01/16 04:58:31;;;;;;;1520.57;719.70;;;2.10;99.90;;;;;;5069082;28;20052;-82
2022/01/16 05:00:57;;;;;;;1526.40;728.30;;;2.10;99.90;;;;;;5063525;28;20395;-84
2022/01/16 05:03:27;;;;;;;1527.47;721.60;;;2.10;99.90;;;;;;5067988;28;20100;-83
2022/01/16 05:05:52;;;;;;;1518.60;715.65;;;2.10;99.90;;;;;;5069913;28;20039;-83
2022/01/16 05:08:18;;;;;;;1519.38;712.00;;;2.10;99.90;;;;;;5069790;28;20727;-82
2022/01/16 05:10:44;;;;;;;1505.75;703.25;;;2.20;99.90;;;;;;5068682;28;20445;-83
2022/01/16 05:13:26;;;;;;;1505.85;719.05;;;2.20;99.90;;;;;;5067112;28;20050;-83
2022/01/16 05:18:40;;;;;;;1504.63;706.80;;;2.20;99.90;;;;;;5066902;28;20519;-83
2022/01/16 05:21:06;;;;;;;1506.43;715.97;;;2.30;99.90;;;;;;5070196;28;20054;-82
2022/01/16 05:23:33;;;;;;;1538.60;716.40;;;2.30;99.90;;;;;;5066802;28;20040;-82
2022/01/16 05:26:00;;;;;;;1519.00;721.88;;;2.30;99.90;;;;;;5067401;28;20040;-82
2022/01/16 05:28:26;;;;;;;1523.25;718.47;;;2.30;99.90;;;;;;5068659;28;20252;-81
2022/01/16 05:30:52;;;;;;;1506.70;706.42;;;2.30;99.90;;;;;;5069916;28;20044;-83
2022/01/16 05:33:18;;;;;;;1529.30;712.70;;;2.40;99.90;;;;;;5068908;28;20075;-82
2022/01/16 05:35:43;;;;;;;1519.78;722.03;;;2.40;99.90;;;;;;5067542;28;20047;-83
2022/01/16 05:38:10;;;;;;;1519.32;722.40;;;2.40;99.90;;;;;;5068085;28;20036;-82
2022/01/16 05:40:36;;;;;;;1509.38;714.03;;;2.40;99.90;;;;;;5064256;28;20043;-82
2022/01/16 05:43:02;;;;;;;1504.63;710.53;;;2.40;99.90;;;;;;5067499;28;20051;-82
2022/01/16 05:45:29;;;;;;;1512.03;721.47;;;2.40;99.90;;;;;;5067134;28;20040;-82
2022/01/16 05:47:55;;;;;;;1508.85;703.13;;;2.40;99.90;;;;;;5068390;28;20539;-84
2022/01/16 05:50:21;;;;;;;1500.53;709.80;;;2.50;99.90;;;;;;5068616;28;20040;-82
2022/01/16 05:52:47;;;;;;;1509.40;716.75;;;2.50;99.90;;;;;;5068190;28;20047;-86
2022/01/16 05:55:14;;;;;;;1551.45;731.40;;;2.50;99.90;;;;;;5069068;28;20408;-82
2022/01/16 05:57:40;;;;;;;1507.78;704.35;;;2.50;99.90;;;;;;5068389;28;20040;-82
2022/01/16 06:00:11;;;;;;;1506.90;717.97;;;4.60;99.90;;;;;;5068623;28;20036;-83
2022/01/16 06:02:36;;;;;;;1561.83;728.37;;;2.50;99.90;;;;;;5069059;28;20040;-82
2022/01/16 06:05:12;;;;;;;1551.60;723.88;;;1.90;99.90;;;;;;5067776;28;20313;-83
2022/01/16 06:07:40;;;;;;;1549.38;720.95;;;3.10;99.90;;;;;;5068545;28;20031;-82
2022/01/16 06:10:06;;;;;;;1520.90;713.33;;;2.60;99.90;;;;;;5069321;28;20477;-82
2022/01/16 06:12:32;;;;;;;1521.60;714.38;;;2.60;99.90;;;;;;5068571;28;20059;-82
2022/01/16 06:14:58;;;;;;;1506.18;718.10;;;2.60;99.90;;;;;;5068038;28;20079;-81
2022/01/16 06:17:23;;;;;;;1513.47;716.03;;;2.60;99.90;;;;;;5069197;28;20044;-81
2022/01/16 06:19:49;;;;;;;1531.85;728.75;;;3.30;99.90;;;;;;5068463;28;20170;-81
2022/01/16 06:22:15;;;;;;;1508.57;710.72;;;2.70;99.90;;;;;;5068940;28;20047;-81
2022/01/16 06:24:43;;;;;;;1528.68;722.40;;;2.70;99.90;;;;;;5067888;28;20532;-82
2022/01/16 06:27:08;;;;;;;1535.40;726.72;;;2.80;99.90;;;;;;5072187;28;20124;-81
2022/01/16 06:29:34;;;;;;;1510.32;724.75;;;2.80;99.90;;;;;;5072227;28;20495;-81
2022/01/16 06:32:01;;;;;;;1497.25;702.63;;;2.80;99.90;;;;;;5072090;28;20535;-81
2022/01/16 06:34:27;;;;;;;1516.22;711.50;;;2.20;99.90;;;;;;5072934;28;20040;-82
2022/01/16 06:36:53;;;;;;;1517.03;720.55;;;4.00;99.90;;;;;;5071814;28;20101;-81
2022/01/16 06:39:19;;;;;;;1507.22;711.90;;;3.50;99.90;;;;;;5069878;28;20588;-82
2022/01/16 06:41:45;;;;;;;1515.38;723.38;;;3.00;99.90;;;;;;5071767;28;20056;-82
2022/01/16 06:44:11;;;;;;;1534.78;728.97;;;3.00;99.90;;;;;;5071547;28;20044;-80
2022/01/16 06:46:37;;;;;;;1524.82;724.08;;;3.00;99.90;;;;;;5072743;28;20547;-81
2022/01/16 06:49:03;;;;;;;1511.18;720.50;;;3.00;99.90;;;;;;5071266;28;20032;-82
2022/01/16 06:51:28;;;;;;;1516.32;720.55;;;3.00;99.90;;;;;;5071493;28;20086;-81
2022/01/16 06:53:57;;;;;;;1540.38;723.72;;;3.00;99.90;;;;;;5071047;28;20119;-82
2022/01/16 06:56:24;;;;;;;1518.47;723.53;;;3.10;99.90;;;;;;5071556;28;20101;-81
2022/01/16 06:58:50;;;;;;;1528.68;730.13;;;3.10;99.90;;;;;;5071877;28;20048;-82
2022/01/16 07:01:16;;;;;;;1541.20;719.42;;;3.20;99.90;;;;;;5070775;28;20119;-82
2022/01/16 07:03:41;;;;;;;1531.82;735.15;;;3.20;99.90;;;;;;5068991;28;20189;-81
2022/01/16 07:06:07;;;;;;;1526.50;723.40;;;3.20;99.90;;;;;;5072429;28;20055;-82
2022/01/16 07:08:33;;;;;;;1522.18;716.17;;;3.20;99.90;;;;;;5071627;28;20055;-82
2022/01/16 07:10:59;;;;;;;1531.40;724.95;;;3.30;99.90;;;;;;5071946;28;20047;-82
2022/01/16 07:13:27;;;;;;;1539.28;732.17;;;3.30;99.90;;;;;;5070956;28;20190;-82
2022/01/16 07:15:53;;;;;;;1532.78;733.75;;;3.30;99.90;;;;;;5071639;28;20044;-82
2022/01/16 07:18:20;;;;;;;1539.72;732.17;;;3.40;99.90;;;;;;5069235;28;20044;-81
2022/01/16 07:20:46;;;;;;;1552.63;734.22;;;3.40;99.90;;;;;;5067162;28;20498;-81
2022/01/16 07:23:16;;;;;;;1536.38;719.47;;;3.40;99.90;;;;;;5082691;28;20074;-82
2022/01/16 07:25:42;;;;;;;1532.80;723.30;;;3.50;99.90;;;;;;5054625;28;20123;-81
2022/01/16 07:28:09;;;;;;;1538.55;724.78;;;3.50;99.90;;;;;;5052309;28;20047;-81
2022/01/16 07:30:36;;;;;;;1534.53;712.83;;;3.50;99.90;;;;;;5065671;28;20056;-82
2022/01/16 07:33:03;;;;;;;1584.55;737.28;;;3.60;99.90;;;;;;5065432;28;20044;-82
2022/01/16 07:35:29;;;;;;;1562.97;724.95;;;3.60;99.90;;;;;;5071054;28;20040;-82
2022/01/16 07:37:54;;;;;;;1535.68;708.17;;;3.60;99.90;;;;;;5070685;28;20044;-81
2022/01/16 07:40:21;;;;;;;1544.38;713.58;;;3.70;99.90;;;;;;5073202;28;20551;-81
2022/01/16 07:42:47;;;;;;;1553.88;728.70;;;3.70;99.90;;;;;;5071373;28;20142;-81
2022/01/16 07:45:13;;;;;;;1529.63;704.08;;;3.80;99.90;;;;;;5072186;28;20464;-81
2022/01/16 07:47:39;;;;;;;1547.72;708.50;;;3.80;99.90;;;;;;5072024;28;20058;-81
2022/01/16 07:50:06;;;;;;;1535.65;691.25;;;4.40;99.90;;;;;;5071600;28;20444;-81
2022/01/16 07:52:32;;;;;;;1549.50;714.15;;;3.80;99.90;;;;;;5072005;28;20058;-80
2022/01/16 07:54:57;;;;;;;1556.47;728.33;;;5.70;99.90;;;;;;5071505;28;20125;-82
2022/01/16 07:57:23;;;;;;;1538.03;716.50;;;3.90;99.90;;;;;;5071442;28;20421;-81
2022/01/16 07:59:50;;;;;;;1565.93;727.40;;;3.90;99.90;;;;;;5070635;28;20074;-82
2022/01/16 08:02:25;;;;;;;1546.68;714.15;;;3.90;99.90;;;;;;5070880;28;20476;-81
2022/01/16 08:04:51;;;;;;;1558.03;723.53;;;3.90;99.90;;;;;;5070639;28;20036;-82
2022/01/16 08:07:16;;;;;;;1551.20;720.30;;;4.00;99.90;;;;;;5071101;28;20442;-82
2022/01/16 08:09:43;;;;;;;1557.43;721.97;;;4.00;99.90;;;;;;5071224;28;20066;-83
2022/01/16 08:12:11;;;;;;;1535.90;707.85;;;3.70;99.90;;;;;;5071911;28;20058;-82
2022/01/16 08:14:36;;;;;;;1554.88;725.25;;;4.00;99.90;;;;;;5067184;28;20102;-84
2022/01/16 08:17:03;;;;;;;1557.45;727.00;;;4.10;99.90;;;;;;5066464;28;20060;-81
2022/01/16 08:19:29;;;;;;;1557.82;725.78;;;4.10;99.90;;;;;;5065282;28;20037;-82
2022/01/16 08:21:55;;;;;;;1569.93;733.85;;;4.10;99.90;;;;;;5066897;28;20118;-83
2022/01/16 08:24:21;;;;;;;1539.35;708.67;;;6.10;99.90;;;;;;5068029;28;20037;-84
2022/01/16 08:26:47;;;;;;;1572.53;726.85;;;4.20;99.90;;;;;;5064332;28;20040;-82
2022/01/16 08:29:13;;;;;;;1548.03;717.20;;;4.20;99.90;;;;;;5065640;28;20131;-84
2022/01/16 08:31:38;;;;;;;1562.30;721.80;;;5.70;99.90;;;;;;5067957;28;20159;-85
2022/01/16 08:34:04;;;;;;;1563.50;727.20;;;4.30;99.90;;;;;;5065358;28;20040;-81
2022/01/16 08:36:30;;;;;;;1568.57;729.67;;;4.30;99.90;;;;;;5065903;28;20126;-82
2022/01/16 08:38:56;;;;;;;1561.60;715.17;;;4.40;99.90;;;;;;5067710;28;20098;-83
2022/01/16 08:41:22;;;;;;;1561.63;719.58;;;5.00;99.90;;;;;;5063655;28;20136;-84
2022/01/16 08:43:48;;;;;;;1593.18;724.90;;;4.40;99.90;;;;;;5063774;28;20832;-83
2022/01/16 08:46:14;;;;;;;1572.90;716.08;;;4.40;99.90;;;;;;5062292;28;20131;-84
2022/01/16 08:48:40;;;;;;;1575.50;715.90;;;4.50;99.90;;;;;;5049134;28;20644;-84
2022/01/16 08:51:06;;;;;;;1563.45;701.28;;;4.40;99.90;;;;;;5065889;28;20036;-83
2022/01/16 08:53:32;;;;;;;1577.80;716.05;;;4.60;99.90;;;;;;5067321;28;20043;-83
2022/01/16 08:55:59;;;;;;;1575.22;713.47;;;4.70;99.90;;;;;;5066212;28;20109;-82
2022/01/16 08:58:25;;;;;;;1571.43;715.13;;;4.60;99.90;;;;;;5066886;28;20711;-84
2022/01/16 09:00:51;;;;;;;1575.10;717.75;;;4.70;99.90;;;;;;5066754;28;20037;-83
2022/01/16 09:03:19;;;;;;;1562.45;703.97;;;5.30;99.90;;;;;;5065242;28;20703;-84
2022/01/16 09:05:45;;;;;;;1575.53;708.88;;;6.60;99.90;;;;;;5083129;28;20097;-84
2022/01/16 09:08:11;;;;;;;1574.32;708.05;;;4.70;99.90;;;;;;5066935;28;20033;-84
2022/01/16 09:10:37;;;;;;;1571.68;699.40;;;4.70;99.90;;;;;;5066247;28;20044;-84
2022/01/16 09:13:04;;;;;;;1571.43;705.03;;;4.80;99.90;;;;;;5066361;28;20057;-85
2022/01/16 09:15:30;;;;;;;1584.88;720.75;;;4.90;99.90;;;;;;5065814;28;20188;-83
2022/01/16 09:17:55;;;;;;;1567.85;699.00;;;4.80;99.90;;;;;;5064339;28;20060;-84
2022/01/16 09:20:21;;;;;;;1577.85;705.72;;;4.80;99.90;;;;;;5065213;28;20064;-85
2022/01/16 09:22:49;;;;;;;1592.78;727.17;;;4.90;99.90;;;;;;5065180;28;20040;-85
2022/01/16 09:25:17;;;;;;;1578.95;707.88;;;4.90;99.90;;;;;;5066133;28;20497;-83
2022/01/16 09:27:43;;;;;;;1581.03;705.70;;;4.90;99.90;;;;;;5064116;28;20115;-83
2022/01/16 09:30:10;;;;;;;1580.90;705.92;;;5.00;99.90;;;;;;5057561;28;20464;-84
2022/01/16 09:32:36;;;;;;;1568.75;702.47;;;5.00;99.90;;;;;;5066194;28;20036;-84
2022/01/16 09:35:04;;;;;;;1587.38;710.63;;;5.10;99.90;;;;;;5057603;28;20051;-83
2022/01/16 09:37:30;;;;;;;1582.63;716.38;;;5.10;99.90;;;;;;5063620;28;20040;-84
2022/01/16 09:39:58;;;;;;;1580.60;718.42;;;5.20;99.90;;;;;;5065527;28;20143;-82
2022/01/16 09:42:24;;;;;;;1649.07;737.67;;;5.30;99.90;;;;;;5055454;28;20052;-85
2022/01/16 09:44:50;;;;;;;1603.07;722.72;;;5.30;99.90;;;;;;5048790;28;20054;-83
2022/01/16 09:47:16;;;;;;;1579.70;714.08;;;5.30;99.90;;;;;;5064227;28;20057;-83
2022/01/16 09:49:42;;;;;;;1590.65;724.80;;;6.10;99.90;;;;;;5063124;28;20409;-84
2022/01/16 09:52:08;;;;;;;1564.22;706.92;;;5.40;99.90;;;;;;5065386;28;20127;-84
2022/01/16 09:54:36;;;;;;;1581.85;719.65;;;5.40;99.90;;;;;;5056011;28;20086;-85
2022/01/16 09:57:02;;;;;;;1573.95;720.38;;;5.40;99.90;;;;;;5057123;28;20064;-86
2022/01/16 09:59:28;;;;;;;1581.53;715.65;;;5.40;99.90;;;;;;5064616;28;20037;-85
2022/01/16 10:01:54;;;;;;;1562.70;716.45;;;5.50;99.90;;;;;;5060592;28;20041;-86
2022/01/16 10:04:39;;;;;;;1584.22;727.97;;;5.50;99.90;;;;;;5060288;28;20580;-84
2022/01/16 10:07:07;;;;;;;1571.97;718.45;;;5.50;99.90;;;;;;5059643;28;20044;-84
2022/01/16 10:09:37;;;;;;;1570.70;718.08;;;5.50;99.90;;;;;;5055704;28;20948;-84
2022/01/16 10:12:14;;;;;;;1558.00;722.38;;;5.50;99.90;;;;;;5039348;28;20430;-85
2022/01/16 10:14:49;;;;;;;1537.20;714.13;;;5.50;99.90;;;;;;5042825;28;20056;-83
2022/01/16 10:17:19;;;;;;;1557.75;722.00;;;5.50;99.90;;;;;;5046262;28;20484;-85
2022/01/16 10:19:45;;;;;;;1539.40;726.35;;;5.60;99.90;;;;;;5045992;28;20080;-85
2022/01/16 10:22:13;;;;;;;1560.93;724.25;;;5.60;99.90;;;;;;5047292;28;20054;-86
2022/01/16 10:24:41;;;;;;;1550.65;746.75;;;5.60;99.90;;;;;;5028499;28;20038;-84
2022/01/16 10:27:10;;;;;;;1527.88;749.50;;;5.60;99.90;;;;;;5044560;28;20045;-84
2022/01/16 10:29:41;;;;;;;1502.10;760.13;;;5.70;99.90;;;;;;5045935;28;20053;-84
2022/01/16 10:32:31;;;;;;;1488.65;756.80;;;5.70;99.90;;;;;;5046614;28;20094;-85
2022/01/16 10:35:20;;;;;;;1407.78;686.70;;;5.70;99.90;;;;;;5024195;28;20103;-84
2022/01/16 10:37:58;;;;;;;1463.07;740.05;;;5.80;99.90;;;;;;5034886;28;20147;-93
2022/01/16 10:40:32;;;;;;;1388.13;726.58;;;5.90;99.90;;;;;;5045559;28;20616;-82
2022/01/16 10:42:58;;;;;;;1429.05;777.97;;;5.90;99.90;;;;;;5046882;28;20384;-84
2022/01/16 10:45:29;;;;;;;1406.57;759.78;;;5.90;99.90;;;;;;5045591;28;20409;-84
2022/01/16 10:48:05;;;;;;;1282.60;671.35;;;5.90;99.90;;;;;;5046242;28;20052;-85
2022/01/16 10:50:30;;;;;;;1250.55;628.00;;;6.80;99.90;;;;;;5046029;28;20041;-85
2022/01/16 10:52:56;;;;;;;1213.28;619.75;;;6.40;99.90;;;;;;5046126;28;20789;-83
2022/01/16 10:55:34;;;;;;;1270.93;660.28;;;6.00;99.90;;;;;;5045887;28;20076;-85
2022/01/16 10:58:09;;;;;;;1254.95;675.80;;;6.00;99.90;;;;;;5045465;28;20158;-85
2022/01/16 11:00:37;;;;;;;1291.72;726.40;;;6.10;99.90;;;;;;5034293;28;20076;-83
2022/01/16 11:03:06;;;;;;;1241.30;614.55;;;6.10;99.90;;;;;;5045290;28;20072;-84
2022/01/16 11:05:46;;;;;;;1206.65;662.50;;;6.20;99.90;;;;;;5044122;28;20063;-83
2022/01/16 11:08:14;;;;;;;1205.38;697.17;;;6.20;99.90;;;;;;5047009;28;20072;-84
2022/01/16 11:10:45;;;;;;;1329.20;822.10;;;6.20;99.90;;;;;;5043950;28;20048;-84
2022/01/16 11:13:19;;;;;;;1324.15;803.15;;;6.30;99.90;;;;;;5038837;28;20373;-83
2022/01/16 11:15:51;;;;;;;1364.97;844.85;;;6.30;99.90;;;;;;5051443;28;20071;-83
2022/01/16 11:18:17;;;;;;;;;;;6.30;99.90;;;;;;5054160;28;20131;-84
2022/01/16 11:20:52;;;;;;;1391.28;828.10;;;6.30;99.90;;;;;;5051191;28;19927;-83
2022/01/16 11:23:31;;;;;;;1363.55;847.83;;;6.30;99.90;;;;;;5051893;28;20051;-84
2022/01/16 11:26:17;;;;;;;1227.97;643.92;;;6.30;99.90;;;;;;5053728;28;20048;-84
2022/01/16 11:28:43;;;;;;;1103.88;580.22;;;6.40;99.90;;;;;;5044927;28;20040;-84
2022/01/16 11:31:11;;;;;;;1087.20;488.90;;;6.40;99.90;;;;;;5051983;28;20453;-84
2022/01/16 11:33:39;;;;;;;1160.28;657.30;;;6.40;99.90;;;;;;5051999;28;20218;-85
2022/01/16 11:36:13;;;;;;;1055.05;479.95;;;6.40;99.90;;;;;;5051959;28;20043;-83
2022/01/16 11:38:51;;;;;;;1108.53;620.15;;;6.40;99.90;;;;;;5051432;28;20094;-83
2022/01/16 11:41:35;;;;;;;1105.00;520.92;;;6.40;99.90;;;;;;5052798;28;20064;-85
2022/01/16 11:44:03;;;;;;;1085.05;596.53;;;6.50;99.90;;;;;;5030343;28;20057;-82
2022/01/16 11:46:30;;;;;;;1123.53;532.72;;;6.50;99.90;;;;;;5049557;28;20048;-82
2022/01/16 11:49:00;;;;;;;1059.80;456.90;;;6.50;99.90;;;;;;5051777;28;20592;-82
2022/01/16 11:51:35;;;;;;;1048.22;559.63;;;6.50;99.90;;;;;;5048731;28;20057;-82
2022/01/16 11:54:19;;;;;;;1073.72;555.17;;;6.50;99.90;;;;;;5050886;28;20104;-85
2022/01/16 11:56:44;;;;;;;1066.28;571.92;;;6.60;99.90;;;;;;5070004;28;20048;-85
2022/01/16 11:59:21;;;;;;;1077.78;564.08;;;6.60;99.90;;;;;;5056726;28;20044;-84
2022/01/16 12:01:52;;;;;;;1131.30;647.25;;;6.50;99.90;;;;;;5052835;28;20388;-83
2022/01/16 12:04:30;;;;;;;1117.07;604.10;;;6.60;99.90;;;;;;5057924;28;20706;-83
2022/01/16 12:07:04;;;;;;;1286.72;873.50;;;6.60;99.90;;;;;;5065527;28;20189;-84
2022/01/16 12:12:13;;;;;;;1120.03;568.35;;;6.60;99.90;;;;;;5045279;28;20395;-83
2022/01/16 12:14:51;;;;;;;1089.68;609.83;;;6.60;99.90;;;;;;5046475;28;20063;-84
2022/01/16 12:17:45;;;;;;;1072.07;585.95;;;6.60;99.90;;;;;;5049804;28;20492;-84
2022/01/16 12:20:24;;;;;;;1056.80;594.92;;;6.60;99.90;;;;;;5044126;28;20052;-84
2022/01/16 12:22:52;;;;;;;1084.85;594.88;;;6.60;99.90;;;;;;5048985;28;20097;-84
2022/01/16 12:25:50;;;;;;;1068.32;598.85;;;6.70;99.90;;;;;;5053380;28;21986;-85
2022/01/16 12:28:22;;;;;;;1091.43;523.30;;;6.70;99.90;;;;;;5050238;28;20460;-84
2022/01/16 12:31:02;;;;;;;1206.13;825.83;;;6.70;99.90;;;;;;5063904;28;20572;-83
2022/01/16 12:33:38;;;;;;;1081.18;594.45;;;6.70;99.90;;;;;;5050111;28;20071;-82
2022/01/16 12:36:10;;;;;;;1132.10;673.88;;;6.70;99.90;;;;;;5051755;28;20052;-83
2022/01/16 12:38:43;;;;;;;1100.20;645.90;;;6.60;99.90;;;;;;5048301;28;20037;-85
2022/01/16 12:41:30;;;;;;;1157.57;707.70;;;6.70;99.90;;;;;;5044708;28;20098;-84
2022/01/16 12:43:57;;;;;;;1076.43;590.90;;;6.70;99.90;;;;;;5045676;28;20052;-83
2022/01/16 12:46:32;;;;;;;1103.95;658.97;;;6.60;99.90;;;;;;5063221;28;20076;-83
2022/01/16 12:49:02;;;;;;;1089.32;646.45;;;6.70;99.90;;;;;;5047600;28;20160;-83
2022/01/16 12:51:31;;;;;;;1189.43;757.85;;;6.70;99.90;;;;;;5049772;28;20551;-83
2022/01/16 12:54:03;;;;;;;1072.80;516.35;;;6.60;99.90;;;;;;5048589;28;20132;-83
2022/01/16 12:56:34;;;;;;;1084.65;621.15;;;6.60;99.90;;;;;;5050135;28;20048;-85